Time;durP1;ratioP1;P1;durP2;ratioP2;P2;SDS_P1;SDS_P2;PMS_P1;PMS_P2;Temp;Humidity;BMP_temperature;BMP_pressure;BME280_temperature;BME280_humidity;BME280_pressure;Samples;Min_cycle;Max_cycle;Signal;HPM_P1;HPM_P2
2023/07/14 12:53:31;;;;;;;2.40;2.20;;;;;;;31.09;41.06;99051.94;103044;1289;600173;-78
2023/07/14 12:56:10;;;;;;;3.50;2.30;;;;;;;31.06;40.78;99052.86;105054;1272;59416;-78
2023/07/14 12:58:37;;;;;;;5.10;2.00;;;;;;;31.05;40.20;99048.10;105671;1260;59359;-77
2023/07/14 13:01:04;;;;;;;3.00;2.50;;;;;;;31.04;40.40;99049.16;105700;1255;63534;-80
2023/07/14 13:03:39;;;;;;;2.50;2.30;;;;;;;31.07;39.70;99045.05;105685;1260;60881;-79
2023/07/14 13:06:05;;;;;;;3.60;2.00;;;;;;;31.09;39.84;99045.65;105627;1257;153079;-76
2023/07/14 13:08:32;;;;;;;2.20;2.00;;;;;;;31.12;39.85;99042.86;106079;1264;59285;-77
2023/07/14 13:11:05;;;;;;;4.00;2.30;;;;;;;31.17;40.22;99039.81;105997;1256;59348;-78
2023/07/14 13:13:40;;;;;;;3.50;1.70;;;;;;;31.14;39.30;99039.14;106063;1258;62704;-77
2023/07/14 13:16:10;;;;;;;1.90;1.80;;;;;;;31.03;38.54;99037.36;105999;1256;60831;-77
2023/07/14 13:18:37;;;;;;;2.90;1.90;;;;;;;30.98;37.87;99033.32;105944;1254;64338;-76
2023/07/14 13:21:30;;;;;;;2.70;1.90;;;;;;;30.95;37.38;99027.99;105962;1256;60123;-77
2023/07/14 13:24:06;;;;;;;3.50;1.90;;;;;;;30.95;36.94;99024.02;105900;1252;60040;-78
2023/07/14 13:26:46;;;;;;;1.90;1.70;;;;;;;30.94;36.73;99020.64;105935;1252;63222;-78
2023/07/14 13:29:14;;;;;;;4.30;2.20;;;;;;;30.82;36.80;99019.13;106066;1256;69058;-78
2023/07/14 13:31:42;;;;;;;2.30;1.90;;;;;;;30.78;36.92;99015.34;105968;1257;64144;-77
2023/07/14 13:34:24;;;;;;;2.40;1.80;;;;;;;30.77;36.81;99012.98;105874;1265;59669;-77
2023/07/14 13:36:52;;;;;;;1.90;1.80;;;;;;;30.63;36.28;99013.02;105749;1253;59631;-77
2023/07/14 13:39:33;;;;;;;1.90;1.70;;;;;;;30.48;36.60;99014.98;105768;1257;65040;-78
2023/07/14 13:42:04;;;;;;;2.20;1.40;;;;;;;30.58;36.69;99007.10;105838;1257;60369;-77
2023/07/14 13:44:38;;;;;;;2.70;2.20;;;;;;;30.76;36.46;99000.61;105895;1257;63898;-77
2023/07/14 13:47:12;;;;;;;1.90;1.60;;;;;;;30.81;36.01;98998.38;106045;1263;59614;-77
2023/07/14 13:49:39;;;;;;;2.00;1.70;;;;;;;30.74;35.92;98996.42;106052;1253;59647;-77
2023/07/14 13:52:21;;;;;;;3.40;2.30;;;;;;;30.77;35.77;98994.52;106079;1254;59522;-77
2023/07/14 13:54:58;;;;;;;1.80;1.60;;;;;;;30.82;35.48;98995.13;106077;1254;60701;-75
2023/07/14 13:57:25;;;;;;;2.10;1.90;;;;;;;30.91;35.78;98987.53;106089;1251;63511;-76
2023/07/14 13:59:51;;;;;;;2.80;2.20;;;;;;;31.02;35.77;98989.10;106073;1253;59626;-76
2023/07/14 14:02:39;;;;;;;2.20;1.90;;;;;;;31.01;35.95;98986.31;106079;1263;59525;-78
2023/07/14 14:05:21;;;;;;;3.30;2.40;;;;;;;31.09;36.32;98986.23;105823;1251;64898;-79
2023/07/14 14:07:50;;;;;;;3.20;1.90;;;;;;;31.13;36.12;98985.17;106065;1265;60176;-77
2023/07/14 14:10:20;;;;;;;3.40;2.00;;;;;;;31.05;35.96;98980.33;106108;1254;63798;-77
2023/07/14 14:12:46;;;;;;;2.20;1.70;;;;;;;31.02;35.89;98979.19;106074;1256;59736;-78
2023/07/14 14:15:21;;;;;;;4.20;2.00;;;;;;;30.94;35.85;98980.29;106037;1254;59544;-77
2023/07/14 14:17:53;;;;;;;4.20;2.40;;;;;;;30.77;35.54;98979.88;106099;1249;64446;-78
2023/07/14 14:20:23;;;;;;;2.30;2.00;;;;;;;30.36;35.32;98978.62;106022;1250;60947;-78
2023/07/14 14:22:52;;;;;;;3.10;2.20;;;;;;;30.10;35.85;98975.54;105956;1255;64716;-77
2023/07/14 14:25:21;;;;;;;4.40;1.90;;;;;;;29.94;35.79;98980.75;105829;1256;59758;-79
2023/07/14 14:27:51;;;;;;;3.30;2.20;;;;;;;29.81;36.15;98979.25;106030;1254;60176;-77
2023/07/14 14:30:19;;;;;;;4.10;2.10;;;;;;;29.81;36.51;98976.00;106112;1250;64241;-80
2023/07/14 14:32:48;;;;;;;2.40;2.20;;;;;;;29.75;36.35;98976.98;106205;1254;60687;-76
2023/07/14 14:35:33;;;;;;;1.90;1.80;;;;;;;29.65;36.55;98974.08;106056;1254;64081;-76
2023/07/14 14:38:09;;;;;;;2.20;2.00;;;;;;;29.51;36.52;98974.27;106093;1254;59727;-78
2023/07/14 14:40:36;;;;;;;2.00;1.80;;;;;;;29.42;36.67;98974.08;106006;1251;59797;-76
2023/07/14 14:43:16;;;;;;;3.20;1.70;;;;;;;29.45;36.65;98971.73;106047;1251;73778;-76
2023/07/14 14:45:43;;;;;;;2.80;1.90;;;;;;;29.44;36.41;98970.16;106098;1251;60770;-76
2023/07/14 14:48:21;;;;;;;3.40;2.20;;;;;;;29.41;36.35;98970.27;106046;1257;63734;-76
2023/07/14 14:50:49;;;;;;;3.30;2.20;;;;;;;29.39;36.05;98965.81;106101;1251;59652;-76
2023/07/14 14:53:19;;;;;;;2.50;2.00;;;;;;;29.39;35.95;98965.20;106055;1251;59637;-76
2023/07/14 14:55:49;;;;;;;5.30;2.70;;;;;;;29.38;36.09;98964.06;106086;1254;64898;-76
2023/07/14 14:58:23;;;;;;;3.50;2.00;;;;;;;29.46;36.47;98960.98;109760;1253;59437;-76
2023/07/14 15:00:56;;;;;;;2.70;2.00;;;;;;;29.65;36.33;98962.38;109744;1251;62843;-76
2023/07/14 15:03:23;;;;;;;1.80;1.60;;;;;;;29.79;36.72;98964.75;109345;1249;57624;-77
2023/07/14 15:05:50;;;;;;;3.90;2.60;;;;;;;29.83;36.73;98960.09;109729;1251;57356;-77
2023/07/14 15:08:18;;;;;;;2.70;1.80;;;;;;;29.89;36.70;98957.19;109784;1251;62861;-77
2023/07/14 15:10:49;;;;;;;5.00;2.30;;;;;;;29.87;36.06;98953.73;109757;1249;58901;-77
2023/07/14 15:13:26;;;;;;;4.60;2.40;;;;;;;29.76;36.11;98954.15;109776;1251;64042;-76
2023/07/14 15:15:56;;;;;;;2.80;2.50;;;;;;;29.72;36.43;98952.55;109790;1249;57354;-76
2023/07/14 15:18:23;;;;;;;2.50;1.80;;;;;;;29.62;36.12;98950.02;109839;1250;57257;-77
2023/07/14 15:20:50;;;;;;;4.10;2.40;;;;;;;29.51;36.41;98944.50;109753;1249;64217;-78
2023/07/14 15:23:17;;;;;;;3.50;2.00;;;;;;;29.43;36.39;98946.19;109767;1250;59878;-77
2023/07/14 15:25:51;;;;;;;2.20;2.00;;;;;;;29.38;36.86;98944.92;109731;1251;62918;-77
2023/07/14 15:28:21;;;;;;;3.30;2.50;;;;;;;29.44;36.65;98947.63;109813;1251;57427;-77
2023/07/14 15:30:48;;;;;;;4.30;2.10;;;;;;;29.47;36.59;98949.75;109664;1251;57382;-77
2023/07/14 15:33:16;;;;;;;2.90;2.20;;;;;;;29.52;37.04;98943.66;109738;1251;64425;-77
2023/07/14 15:35:43;;;;;;;2.30;2.10;;;;;;;29.57;37.30;98942.55;109800;1251;58900;-77
2023/07/14 15:38:11;;;;;;;5.30;2.50;;;;;;;29.56;37.38;98941.42;109681;1251;62519;-76
2023/07/14 15:40:40;;;;;;;3.20;2.00;;;;;;;29.50;37.25;98938.34;109677;1251;57396;-77
2023/07/14 15:43:29;;;;;;;5.30;1.90;;;;;;;29.48;37.10;98933.00;109375;1251;58410;-77
2023/07/14 15:46:01;;;;;;;3.40;2.00;;;;;;;29.43;36.89;98931.19;109719;1251;63249;-77
2023/07/14 15:48:36;;;;;;;3.10;2.10;;;;;;;29.41;37.02;98930.20;109757;1251;60108;-77
2023/07/14 15:51:12;;;;;;;3.90;2.10;;;;;;;29.43;36.95;98929.29;109610;1251;63973;-76
2023/07/14 15:53:40;;;;;;;2.70;1.90;;;;;;;29.41;36.84;98931.30;109658;1251;57472;-77
2023/07/14 15:56:16;;;;;;;1.90;1.80;;;;;;;29.41;37.14;98930.63;109747;1251;57450;-76
2023/07/14 15:58:43;;;;;;;3.20;1.80;;;;;;;29.42;37.14;98929.78;109686;1251;64189;-76
2023/07/14 16:01:12;;;;;;;3.40;2.50;;;;;;;29.38;37.34;98928.09;109652;1251;60080;-76
2023/07/14 16:03:40;;;;;;;4.00;2.30;;;;;;;29.39;37.71;98925.98;109645;1251;64197;-76
2023/07/14 16:06:12;;;;;;;2.10;1.70;;;;;;;29.37;37.50;98929.13;109683;1251;57688;-76
2023/07/14 16:08:40;;;;;;;4.10;2.20;;;;;;;29.28;37.42;98927.48;109606;1250;57354;-77
2023/07/14 16:11:18;;;;;;;3.10;2.20;;;;;;;29.18;37.41;98925.23;109697;1251;64242;-77
2023/07/14 16:13:45;;;;;;;2.20;1.90;;;;;;;29.05;37.25;98926.54;109691;1251;60003;-78
2023/07/14 16:16:12;;;;;;;2.70;2.10;;;;;;;28.94;37.13;98929.83;109657;1251;63872;-75
2023/07/14 16:18:39;;;;;;;3.10;2.10;;;;;;;28.87;37.56;98933.56;109648;1250;58116;-77
2023/07/14 16:21:07;;;;;;;4.40;2.20;;;;;;;28.80;38.02;98933.56;109704;1250;57514;-77
2023/07/14 16:23:34;;;;;;;2.50;2.20;;;;;;;28.78;38.00;98931.13;109634;1251;64397;-76
2023/07/14 16:26:01;;;;;;;3.20;2.30;;;;;;;28.80;38.12;98929.38;109739;1251;60170;-77
2023/07/14 16:28:27;;;;;;;2.90;2.40;;;;;;;28.79;38.60;98928.88;109671;1250;57383;-77
2023/07/14 16:30:54;;;;;;;3.20;2.30;;;;;;;28.80;38.94;98926.48;109439;1251;57429;-76
2023/07/14 16:33:20;;;;;;;2.60;2.30;;;;;;;28.80;38.91;98923.77;109715;1250;57408;-76
2023/07/14 16:35:49;;;;;;;2.60;2.40;;;;;;;28.77;38.88;98922.14;109689;1250;64439;-76
2023/07/14 16:38:21;;;;;;;5.60;2.90;;;;;;;28.77;39.31;98924.80;109674;1251;60136;-76
2023/07/14 16:40:48;;;;;;;2.20;2.10;;;;;;;28.76;39.86;98922.31;109682;1250;64019;-76
2023/07/14 16:43:20;;;;;;;4.30;2.20;;;;;;;28.74;39.67;98920.34;109666;1251;57809;-76
2023/07/14 16:45:52;;;;;;;2.60;1.90;;;;;;;28.66;39.28;98918.42;109360;1251;57292;-76
2023/07/14 16:48:19;;;;;;;3.20;2.60;;;;;;;28.51;39.09;98920.38;109670;1251;63060;-76
2023/07/14 16:50:47;;;;;;;2.90;2.60;;;;;;;28.37;39.16;98921.07;109699;1250;58648;-76
2023/07/14 16:53:16;;;;;;;4.30;2.80;;;;;;;28.27;39.26;98922.60;109669;1251;63742;-77
2023/07/14 16:55:42;;;;;;;3.10;2.30;;;;;;;28.20;39.75;98918.09;109657;1251;57319;-77
2023/07/14 16:58:17;;;;;;;3.20;2.70;;;;;;;28.16;39.89;98916.67;109363;1251;57430;-77
2023/07/14 17:00:43;;;;;;;3.70;3.00;;;;;;;28.22;40.22;98918.29;109693;1251;62909;-77
2023/07/14 17:03:27;;;;;;;4.80;3.50;;;;;;;28.48;40.94;98921.70;109680;1251;59833;-77
2023/07/14 17:05:58;;;;;;;2.40;2.20;;;;;;;28.79;40.16;98920.02;109661;1250;64101;-77
2023/07/14 17:08:28;;;;;;;4.20;2.40;;;;;;;28.80;39.63;98918.88;109625;1250;58123;-76
2023/07/14 17:10:57;;;;;;;2.70;2.30;;;;;;;28.75;39.66;98919.80;109740;1250;58473;-77
2023/07/14 17:13:25;;;;;;;2.80;2.40;;;;;;;28.80;39.78;98918.62;109621;1251;63778;-76
2023/07/14 17:15:53;;;;;;;3.10;2.80;;;;;;;28.98;39.96;98917.82;109704;1251;58980;-77
2023/07/14 17:18:24;;;;;;;2.60;2.40;;;;;;;29.19;39.80;98923.77;109715;1250;63763;-77
2023/07/14 17:20:53;;;;;;;4.00;2.60;;;;;;;29.23;39.43;98919.30;109679;1250;58525;-77
2023/07/14 17:23:28;;;;;;;5.50;3.20;;;;;;;29.25;39.45;98921.10;109680;1250;58309;-79
2023/07/14 17:25:57;;;;;;;3.50;2.50;;;;;;;29.33;39.82;98916.70;109422;1251;65244;-77
2023/07/14 17:28:26;;;;;;;3.30;3.00;;;;;;;29.45;40.15;98914.61;109701;1251;59041;-77
2023/07/14 17:30:53;;;;;;;5.50;3.20;;;;;;;29.58;40.66;98916.00;109685;1250;64047;-77
2023/07/14 17:33:24;;;;;;;5.00;3.90;;;;;;;29.64;40.65;98915.15;109656;1250;58479;-77
2023/07/14 17:35:54;;;;;;;3.20;2.80;;;;;;;29.66;40.74;98915.77;109713;1250;58379;-77
2023/07/14 17:38:31;;;;;;;3.30;3.00;;;;;;;29.72;40.90;98915.73;109694;1250;65314;-76
2023/07/14 17:40:58;;;;;;;4.80;3.00;;;;;;;29.79;41.02;98914.36;109477;1250;60415;-76
2023/07/14 17:43:24;;;;;;;4.60;2.90;;;;;;;29.84;41.53;98915.05;109742;1250;64105;-77
2023/07/14 17:45:51;;;;;;;2.70;2.10;;;;;;;29.83;41.86;98910.58;109680;1250;58184;-76
2023/07/14 17:48:18;;;;;;;3.80;2.80;;;;;;;29.73;41.86;98907.79;109683;1250;58150;-77
2023/07/14 17:50:47;;;;;;;4.60;2.60;;;;;;;29.60;41.91;98910.45;109707;1250;65058;-76
2023/07/14 17:53:27;;;;;;;3.00;2.30;;;;;;;29.48;41.86;98912.89;109727;1250;59559;-76
2023/07/14 17:55:54;;;;;;;7.60;2.50;;;;;;;29.45;41.81;98914.98;109662;1250;62580;-76
2023/07/14 17:58:24;;;;;;;3.00;2.70;;;;;;;29.40;41.95;98916.91;109730;1250;58218;-76
2023/07/14 18:00:53;;;;;;;3.10;2.90;;;;;;;29.36;42.50;98915.55;109471;1251;58228;-76
2023/07/14 18:03:22;;;;;;;4.80;2.50;;;;;;;29.30;42.63;98917.26;109621;1250;65066;-77
2023/07/14 18:05:49;;;;;;;;;;;;;;;29.16;42.74;98922.03;109781;1250;60137;-77
2023/07/14 18:08:18;;;;;;;3.90;2.70;;;;;;;29.00;43.24;98926.65;109727;1250;62866;-77
2023/07/14 18:10:50;;;;;;;5.80;3.30;;;;;;;28.94;43.63;98925.02;109903;1251;57509;-76
2023/07/14 18:13:22;;;;;;;3.70;3.30;;;;;;;28.82;43.86;98922.91;109870;1250;58303;-78
2023/07/14 18:15:49;;;;;;;5.10;3.00;;;;;;;28.56;44.25;98921.48;109710;1250;63681;-76
2023/07/14 18:18:19;;;;;;;4.00;3.50;;;;;;;28.22;44.97;98920.35;109701;1250;60191;-77
2023/07/14 18:20:46;;;;;;;3.90;3.60;;;;;;;27.88;45.21;98918.55;109217;1251;65026;-76
2023/07/14 18:23:20;;;;;;;4.90;3.70;;;;;;;27.58;45.84;98916.73;109734;1250;58193;-76
2023/07/14 18:25:47;;;;;;;4.50;4.00;;;;;;;27.25;46.21;98912.70;109718;1250;58671;-76
2023/07/14 18:28:20;;;;;;;5.20;4.70;;;;;;;26.93;46.57;98916.61;109715;1250;64116;-76
2023/07/14 18:30:47;;;;;;;5.30;4.40;;;;;;;26.61;46.85;98913.88;109702;1250;58952;-76
2023/07/14 18:33:18;;;;;;;9.20;5.20;;;;;;;26.35;47.53;98921.24;109722;1250;64057;-76
2023/07/14 18:35:47;;;;;;;5.60;4.60;;;;;;;26.14;48.23;98924.13;109693;1250;58477;-77
2023/07/14 18:38:16;;;;;;;5.50;4.30;;;;;;;25.93;48.80;98926.02;109656;1250;58138;-76
2023/07/14 18:40:45;;;;;;;6.20;5.00;;;;;;;25.70;49.55;98922.48;109721;1250;64041;-76
2023/07/14 18:43:24;;;;;;;6.10;4.90;;;;;;;25.46;50.41;98926.84;109600;1251;60112;-76
2023/07/14 18:45:51;;;;;;;5.30;4.50;;;;;;;25.22;51.31;98933.04;109651;1251;62831;-76
2023/07/14 18:48:25;;;;;;;8.40;5.50;;;;;;;25.00;51.88;98932.92;109708;1250;58127;-77
2023/07/14 18:51:01;;;;;;;5.50;4.90;;;;;;;24.81;52.32;98937.80;109349;1254;58281;-76
2023/07/14 18:53:27;;;;;;;6.20;5.30;;;;;;;24.63;52.84;98938.08;109377;1254;65452;-75
2023/07/14 18:55:54;;;;;;;7.20;5.70;;;;;;;24.47;53.49;98938.45;109392;1254;60382;-76
2023/07/14 18:58:23;;;;;;;7.60;5.00;;;;;;;24.32;54.00;98935.26;109315;1254;58502;-76
2023/07/14 19:00:53;;;;;;;5.80;4.80;;;;;;;24.17;54.34;98941.76;109397;1254;58636;-76
2023/07/14 19:03:24;;;;;;;6.40;4.90;;;;;;;24.04;55.21;98941.39;109462;1254;58146;-76
2023/07/14 19:05:51;;;;;;;8.20;5.70;;;;;;;23.90;55.85;98940.25;109376;1254;65276;-76
2023/07/14 19:08:18;;;;;;;7.80;5.20;;;;;;;23.76;56.12;98940.48;109168;1254;58470;-77
2023/07/14 19:10:45;;;;;;;5.80;4.70;;;;;;;23.65;56.39;98944.53;109363;1254;64121;-75
2023/07/14 19:13:15;;;;;;;6.20;5.30;;;;;;;23.55;56.93;98942.04;109383;1254;58217;-76
2023/07/14 19:15:42;;;;;;;6.90;5.50;;;;;;;23.46;57.10;98939.70;109243;1254;58211;-77
2023/07/14 19:18:23;;;;;;;6.40;4.90;;;;;;;23.36;57.60;98941.55;109378;1254;65340;-76
2023/07/14 19:20:56;;;;;;;6.50;5.50;;;;;;;23.26;57.99;98943.67;109248;1254;60245;-75
2023/07/14 19:23:28;;;;;;;5.90;4.90;;;;;;;23.15;58.11;98939.77;109719;1250;64059;-77
2023/07/14 19:25:56;;;;;;;6.60;5.20;;;;;;;23.06;58.67;98938.52;109388;1251;58224;-76
2023/07/14 19:28:25;;;;;;;9.40;5.80;;;;;;;22.94;59.34;98937.33;109714;1250;58213;-76
2023/07/14 19:30:57;;;;;;;5.80;5.20;;;;;;;22.83;59.85;98938.50;109709;1250;63730;-76
2023/07/14 19:33:30;;;;;;;5.50;4.90;;;;;;;22.73;60.31;98941.83;109763;1250;59076;-75
2023/07/14 19:35:59;;;;;;;5.30;4.80;;;;;;;22.64;60.99;98942.21;109740;1250;63733;-76
2023/07/14 19:38:27;;;;;;;8.20;5.80;;;;;;;22.52;61.71;98941.05;109667;1250;58166;-75
2023/07/14 19:40:56;;;;;;;12.30;6.60;;;;;;;22.40;61.99;98937.56;109769;1250;58040;-77
2023/07/14 19:43:24;;;;;;;8.90;6.40;;;;;;;22.30;62.36;98936.59;109760;1250;64036;-76
2023/07/14 19:45:51;;;;;;;6.40;5.70;;;;;;;22.22;62.67;98929.39;109441;1250;60004;-76
2023/07/14 19:48:21;;;;;;;8.40;6.40;;;;;;;22.15;63.02;98933.21;109694;1250;62492;-76
2023/07/14 19:50:50;;;;;;;7.70;6.90;;;;;;;22.08;63.74;98930.05;109640;1250;58210;-76
2023/07/14 19:53:31;;;;;;;7.70;5.90;;;;;;;22.01;64.02;98929.20;109713;1250;58225;-77
2023/07/14 19:55:59;;;;;;;7.60;6.40;;;;;;;21.94;64.28;98926.80;109699;1250;65384;-76
2023/07/14 19:58:28;;;;;;;9.90;6.90;;;;;;;21.88;64.61;98928.15;109611;1251;59036;-76
2023/07/14 20:00:57;;;;;;;9.70;6.80;;;;;;;21.83;65.03;98924.78;109672;1250;64053;-76
2023/07/14 20:03:29;;;;;;;7.10;6.30;;;;;;;21.78;65.25;98921.29;109672;1250;58148;-76
2023/07/14 20:05:56;;;;;;;8.10;6.50;;;;;;;21.72;65.45;98919.83;109698;1250;58134;-76
2023/07/14 20:08:28;;;;;;;9.20;7.30;;;;;;;21.66;65.93;98921.73;109698;1250;65513;-75
2023/07/14 20:11:00;;;;;;;7.90;7.10;;;;;;;21.60;66.16;98917.32;109696;1250;58695;-76
2023/07/14 20:13:29;;;;;;;7.20;6.40;;;;;;;21.55;66.58;98917.91;109695;1250;64039;-76
2023/07/14 20:15:58;;;;;;;11.40;8.40;;;;;;;21.47;67.03;98920.02;109672;1250;58116;-76
2023/07/14 20:18:30;;;;;;;10.00;7.20;;;;;;;21.42;67.20;98925.10;109698;1250;58057;-76
2023/07/14 20:20:57;;;;;;;11.30;8.60;;;;;;;21.35;67.70;98925.74;109717;1250;64956;-76
2023/07/14 20:23:25;;;;;;;10.80;7.20;;;;;;;21.27;68.14;98926.80;109729;1250;60084;-75
2023/07/14 20:25:55;;;;;;;10.10;7.60;;;;;;;21.20;68.47;98928.11;109799;1250;62506;-76
2023/07/14 20:28:33;;;;;;;7.40;6.70;;;;;;;21.17;68.70;98924.17;109642;1251;58509;-76
2023/07/14 20:31:09;;;;;;;9.00;6.80;;;;;;;21.13;68.96;98922.94;109660;1251;58104;-76
2023/07/14 20:33:35;;;;;;;7.60;6.90;;;;;;;21.09;69.47;98922.00;109640;1250;65337;-76
2023/07/14 20:36:02;;;;;;;8.50;6.40;;;;;;;21.04;69.89;98921.64;109662;1250;60121;-75
2023/07/14 20:38:29;;;;;;;9.00;6.80;;;;;;;20.99;70.34;98920.86;109640;1250;62514;-77
2023/07/14 20:40:59;;;;;;;7.30;6.30;;;;;;;20.95;70.53;98919.74;109619;1251;58185;-76
2023/07/14 20:43:29;;;;;;;8.20;6.70;;;;;;;20.92;70.78;98918.84;109721;1250;58143;-77
2023/07/14 20:45:56;;;;;;;8.60;6.30;;;;;;;20.90;71.20;98918.73;109670;1250;65334;-75
2023/07/14 20:48:24;;;;;;;9.20;6.80;;;;;;;20.87;71.56;98916.36;109701;1250;59970;-75
2023/07/14 20:50:54;;;;;;;8.00;7.00;;;;;;;20.81;72.05;98914.64;109644;1250;64040;-76
2023/07/14 20:53:23;;;;;;;8.40;7.30;;;;;;;20.73;72.52;98919.45;109451;1250;58401;-76
2023/07/14 20:55:54;;;;;;;8.50;6.80;;;;;;;20.67;72.91;98918.30;109694;1250;58067;-76
2023/07/14 20:58:25;;;;;;;7.60;6.70;;;;;;;20.61;73.62;98914.58;109646;1250;64040;-76
2023/07/14 21:00:53;;;;;;;9.20;6.70;;;;;;;20.56;73.85;98916.10;109703;1250;59032;-76
2023/07/14 21:03:28;;;;;;;8.50;7.60;;;;;;;20.50;74.25;98912.18;109789;1250;62852;-76
2023/07/14 21:05:57;;;;;;;7.60;6.80;;;;;;;20.44;75.10;98914.54;109799;1250;58195;-76
2023/07/14 21:08:26;;;;;;;8.30;7.50;;;;;;;20.35;75.79;98913.16;109398;1250;58252;-76
2023/07/14 21:10:58;;;;;;;9.70;7.40;;;;;;;20.28;76.28;98910.25;109596;1250;66459;-76
2023/07/14 21:13:25;;;;;;;8.00;7.20;;;;;;;20.22;76.89;98912.41;109712;1250;60059;-76
2023/07/14 21:15:53;;;;;;;7.80;6.90;;;;;;;20.15;77.43;98915.77;109675;1250;64039;-76
2023/07/14 21:18:23;;;;;;;8.40;7.30;;;;;;;20.08;78.02;98913.36;109647;1250;58083;-76
2023/07/14 21:20:51;;;;;;;8.50;7.10;;;;;;;20.03;78.27;98915.20;109707;1250;58049;-77
2023/07/14 21:23:21;;;;;;;8.00;6.90;;;;;;;19.98;78.88;98915.90;109708;1250;65255;-76
2023/07/14 21:25:50;;;;;;;8.50;7.30;;;;;;;19.93;79.34;98916.15;109432;1254;59031;-75
2023/07/14 21:28:16;;;;;;;8.80;7.80;;;;;;;19.90;79.85;98913.45;109294;1254;64065;-82
2023/07/14 21:30:45;;;;;;;9.60;8.40;;;;;;;19.86;80.57;98912.11;109234;1254;58136;-77
2023/07/14 21:33:16;;;;;;;9.80;8.40;;;;;;;19.81;81.13;98911.02;109392;1254;58080;-77
2023/07/14 21:35:44;;;;;;;8.60;7.80;;;;;;;19.76;82.03;98912.52;109356;1254;65269;-80
2023/07/14 21:38:16;;;;;;;10.70;9.40;;;;;;;19.69;82.87;98916.27;109483;1254;58979;-79
2023/07/14 21:40:45;;;;;;;9.60;8.20;;;;;;;19.61;83.74;98919.04;109537;1254;62893;-79
2023/07/14 21:43:18;;;;;;;9.70;8.70;;;;;;;19.54;84.34;98918.34;109403;1254;58186;-79
2023/07/14 21:45:46;;;;;;;8.90;8.20;;;;;;;19.48;85.09;98919.30;109349;1254;58279;-79
2023/07/14 21:48:20;;;;;;;11.40;9.00;;;;;;;19.47;85.84;98919.75;109430;1254;63826;-78
2023/07/14 21:50:50;;;;;;;9.00;7.80;;;;;;;19.45;87.03;98916.35;109224;1254;58742;-79
2023/07/14 21:53:20;;;;;;;8.90;8.10;;;;;;;19.41;87.28;98916.15;109350;1254;62997;-79
2023/07/14 21:55:48;;;;;;;8.50;7.70;;;;;;;19.36;87.72;98919.16;109382;1254;58219;-79
2023/07/14 21:58:19;;;;;;;9.50;8.00;;;;;;;19.30;88.27;98923.59;109729;1250;58053;-80
2023/07/14 22:00:46;;;;;;;8.90;8.00;;;;;;;19.23;88.86;98920.52;109692;1251;64053;-78
2023/07/14 22:03:17;;;;;;;9.40;8.00;;;;;;;19.16;89.35;98920.30;109753;1250;58685;-79
2023/07/14 22:05:52;;;;;;;10.00;8.30;;;;;;;19.12;90.08;98920.20;109771;1250;65269;-80
2023/07/14 22:08:21;;;;;;;9.70;8.80;;;;;;;19.06;91.04;98922.63;109632;1250;58175;-76
2023/07/14 22:10:50;;;;;;;11.20;9.50;;;;;;;19.01;91.97;98918.50;109728;1250;58171;-77
2023/07/14 22:13:24;;;;;;;11.20;10.20;;;;;;;18.99;92.97;98917.81;109691;1250;64162;-76
2023/07/14 22:15:51;;;;;;;10.90;9.80;;;;;;;18.98;93.86;98916.83;109727;1250;60105;-78
2023/07/14 22:18:20;;;;;;;11.00;9.90;;;;;;;18.95;94.93;98915.86;109678;1250;62978;-77
2023/07/14 22:20:52;;;;;;;13.10;11.70;;;;;;;18.91;96.12;98920.42;109634;1250;58194;-76
2023/07/14 22:23:20;;;;;;;11.60;10.40;;;;;;;18.87;96.85;98920.45;109685;1250;58213;-78
2023/07/14 22:25:47;;;;;;;11.90;10.70;;;;;;;18.84;97.93;98920.02;109710;1250;63834;-77
2023/07/14 22:28:17;;;;;;;10.00;9.10;;;;;;;18.81;98.21;98917.25;109670;1250;60121;-75
2023/07/14 22:30:45;;;;;;;10.20;9.10;;;;;;;18.80;98.56;98916.83;109690;1250;62889;-75
2023/07/14 22:33:18;;;;;;;10.60;9.60;;;;;;;18.79;99.55;98923.95;109679;1250;58137;-74
2023/07/14 22:35:46;;;;;;;11.70;9.80;;;;;;;18.75;100.00;98920.20;109691;1250;58210;-77
2023/07/14 22:38:13;;;;;;;12.00;10.70;;;;;;;18.71;100.00;98917.91;109725;1250;64122;-75
2023/07/14 22:40:41;;;;;;;10.30;9.20;;;;;;;18.68;100.00;98917.01;109613;1250;59066;-72
2023/07/14 22:43:16;;;;;;;11.10;10.00;;;;;;;18.65;100.00;98916.55;109441;1251;63785;-72
2023/07/14 22:45:44;;;;;;;9.80;8.90;;;;;;;18.60;100.00;98920.96;109714;1250;58088;-72
2023/07/14 22:48:12;;;;;;;11.20;9.90;;;;;;;18.54;100.00;98923.00;109840;1250;58157;-71
2023/07/14 22:50:39;;;;;;;11.10;10.00;;;;;;;18.48;100.00;98918.84;109677;1251;73218;-72
2023/07/14 22:53:14;;;;;;;10.90;9.90;;;;;;;18.45;100.00;98920.93;109671;1250;60481;-72
2023/07/14 22:55:41;;;;;;;10.50;9.40;;;;;;;18.45;100.00;98921.66;109676;1250;62906;-72
2023/07/14 22:58:11;;;;;;;10.70;9.70;;;;;;;18.45;100.00;98918.37;109582;1250;58165;-72
2023/07/14 23:00:38;;;;;;;;;;;;;;;18.44;100.00;98914.31;109734;1250;58193;-73
2023/07/14 23:03:22;;;;;;;11.90;9.40;;;;;;;18.42;100.00;98915.04;109638;1250;65235;-73
2023/07/14 23:05:52;;;;;;;9.50;8.70;;;;;;;18.40;100.00;98916.00;109469;1251;59025;-73
2023/07/14 23:08:20;;;;;;;11.30;9.00;;;;;;;18.38;100.00;98918.89;109657;1250;63756;-73
2023/07/14 23:10:50;;;;;;;10.20;9.20;;;;;;;18.36;100.00;98916.26;109619;1250;58234;-72
2023/07/14 23:13:21;;;;;;;10.50;9.50;;;;;;;18.36;100.00;98916.05;109647;1250;58206;-72
2023/07/14 23:15:48;;;;;;;9.80;8.90;;;;;;;18.36;100.00;98914.95;109641;1250;65365;-72
2023/07/14 23:18:15;;;;;;;9.90;8.90;;;;;;;18.35;100.00;98913.60;109649;1250;60229;-73
2023/07/14 23:20:42;;;;;;;9.60;8.70;;;;;;;18.35;100.00;98911.48;109574;1250;62900;-73
2023/07/14 23:23:14;;;;;;;10.20;9.20;;;;;;;18.35;100.00;98907.91;109632;1250;58468;-72
2023/07/14 23:25:40;;;;;;;11.10;9.80;;;;;;;18.33;100.00;98907.87;109625;1251;58066;-72
2023/07/14 23:28:08;;;;;;;10.40;9.30;;;;;;;18.29;100.00;98906.35;109632;1250;58772;-71
2023/07/14 23:30:39;;;;;;;10.70;9.60;;;;;;;18.26;100.00;98904.84;109644;1250;59804;-72
2023/07/14 23:33:13;;;;;;;12.40;11.20;;;;;;;18.25;100.00;98904.20;109649;1250;64082;-72
2023/07/14 23:35:41;;;;;;;12.00;10.80;;;;;;;18.25;100.00;98901.56;109647;1250;58216;-72
2023/07/14 23:38:08;;;;;;;12.60;11.30;;;;;;;18.23;100.00;98902.05;109653;1251;58110;-72
2023/07/14 23:40:35;;;;;;;11.50;10.40;;;;;;;18.19;100.00;98904.13;109582;1253;65274;-72
2023/07/14 23:43:02;;;;;;;11.80;10.50;;;;;;;18.14;100.00;98908.05;109697;1250;58628;-72
2023/07/14 23:45:30;;;;;;;12.10;10.90;;;;;;;18.09;100.00;98907.43;109666;1250;64072;-72
2023/07/14 23:47:57;;;;;;;11.70;10.70;;;;;;;18.05;100.00;98903.02;109661;1250;58245;-71
2023/07/14 23:50:29;;;;;;;11.80;10.60;;;;;;;18.00;100.00;98898.47;109445;1251;58330;-73
2023/07/14 23:52:55;;;;;;;12.40;10.60;;;;;;;17.94;100.00;98901.30;109322;1251;64006;-71
2023/07/14 23:55:23;;;;;;;11.90;10.60;;;;;;;17.89;100.00;98900.54;109666;1250;60113;-72
2023/07/14 23:57:51;;;;;;;11.40;10.10;;;;;;;17.86;100.00;98899.44;109641;1250;62856;-72
